createdAt,value
2022-08-05T00:00:20.840Z,39.26
2022-08-05T00:03:08.568Z,39.34
2022-08-05T00:06:05.198Z,39.49
2022-08-05T00:08:36.152Z,39.54
2022-08-05T00:11:23.737Z,39.55
2022-08-05T00:13:58.979Z,39.68
2022-08-05T00:16:35.673Z,39.64
2022-08-05T00:19:06.232Z,39.81
2022-08-05T00:21:36.162Z,39.85
2022-08-05T00:24:11.007Z,39.95
2022-08-05T00:26:50.525Z,40.06
2022-08-05T00:29:25.211Z,40.19
2022-08-05T00:32:13.109Z,40.30
2022-08-05T00:35:05.288Z,40.36
2022-08-05T00:37:35.402Z,40.45
2022-08-05T00:40:17.830Z,40.53
2022-08-05T00:42:59.201Z,40.42
2022-08-05T00:45:38.675Z,40.44
2022-08-05T00:48:14.412Z,40.63
2022-08-05T00:50:46.136Z,40.60
2022-08-05T00:54:01.350Z,40.52
2022-08-05T00:56:08.888Z,40.66
2022-08-05T00:58:38.953Z,40.75
2022-08-05T01:01:14.918Z,40.80
2022-08-05T01:03:44.360Z,40.84
2022-08-05T01:06:19.295Z,40.94
2022-08-05T01:08:49.055Z,40.88
2022-08-05T01:11:36.678Z,40.88
2022-08-05T01:14:15.269Z,41.15
2022-08-05T01:16:52.308Z,41.10
2022-08-05T01:20:02.214Z,41.27
2022-08-05T01:22:47.340Z,41.33
2022-08-05T01:25:53.361Z,41.38
2022-08-05T01:28:27.917Z,41.50
2022-08-05T01:31:06.391Z,41.54
2022-08-05T01:33:49.322Z,41.66
2022-08-05T01:36:30.058Z,41.63
2022-08-05T01:39:02.063Z,41.68
2022-08-05T01:41:44.356Z,41.83
2022-08-05T01:44:19.252Z,42.13
2022-08-05T01:46:50.379Z,42.23
2022-08-05T01:49:24.972Z,42.36
2022-08-05T01:52:01.217Z,42.85
2022-08-05T01:54:46.225Z,43.29
2022-08-05T01:58:13.737Z,43.65
2022-08-05T02:00:12.373Z,43.87
2022-08-05T02:02:46.505Z,43.89
2022-08-05T02:05:28.596Z,44.23
2022-08-05T02:08:01.249Z,44.38
2022-08-05T02:10:36.681Z,44.59
2022-08-05T02:13:16.120Z,44.72
2022-08-05T02:15:50.253Z,44.87
2022-08-05T02:18:31.138Z,45.07
2022-08-05T02:21:15.134Z,45.49
2022-08-05T02:23:49.049Z,45.89
2022-08-05T02:26:23.721Z,46.02
2022-08-05T02:28:56.279Z,46.44
2022-08-05T02:31:35.013Z,46.95
2022-08-05T02:34:11.375Z,47.38
2022-08-05T02:36:48.146Z,47.22
2022-08-05T02:39:26.164Z,47.65
2022-08-05T02:42:03.027Z,47.64
2022-08-05T02:44:37.128Z,47.77
2022-08-05T02:47:09.024Z,47.84
2022-08-05T02:49:42.356Z,47.99
2022-08-05T02:52:29.487Z,48.10
2022-08-05T02:55:05.416Z,48.51
2022-08-05T02:58:09.337Z,48.55
2022-08-05T03:00:29.836Z,48.83
2022-08-05T03:03:01.076Z,48.97
2022-08-05T03:06:55.816Z,49.28
2022-08-05T03:08:27.101Z,49.41
2022-08-05T03:11:55.692Z,49.75
2022-08-05T03:13:52.238Z,49.60
2022-08-05T03:16:33.104Z,49.91
2022-08-05T03:19:12.763Z,50.31
2022-08-05T03:21:50.990Z,50.29
2022-08-05T03:24:29.488Z,50.25
2022-08-05T03:27:00.343Z,50.66
2022-08-05T03:29:45.444Z,50.58
2022-08-05T03:32:19.698Z,50.71
2022-08-05T03:34:50.619Z,50.63
2022-08-05T03:37:21.604Z,50.77
2022-08-05T03:40:03.833Z,50.63
2022-08-05T03:42:41.554Z,50.97
2022-08-05T03:45:23.400Z,50.97
2022-08-05T03:47:56.748Z,50.90
2022-08-05T03:50:29.534Z,50.96
2022-08-05T03:54:59.071Z,50.94
2022-08-05T03:56:31.841Z,51.01
2022-08-05T03:59:13.423Z,51.31
2022-08-05T04:01:59.094Z,51.20
2022-08-05T04:04:31.713Z,51.45
2022-08-05T04:07:02.087Z,51.35
2022-08-05T04:09:36.637Z,51.47
2022-08-05T04:12:24.600Z,51.66
2022-08-05T04:14:57.620Z,51.55
2022-08-05T04:17:55.720Z,51.46
2022-08-05T04:20:24.089Z,51.63
2022-08-05T04:22:53.345Z,51.52
2022-08-05T04:25:38.323Z,51.54
2022-08-05T04:28:13.151Z,51.69
2022-08-05T04:30:43.148Z,51.87
2022-08-05T04:33:12.821Z,52.21
2022-08-05T04:36:15.829Z,52.15
2022-08-05T04:38:39.961Z,52.24
2022-08-05T04:41:10.208Z,52.25
2022-08-05T04:43:48.037Z,52.19
2022-08-05T04:46:28.119Z,52.15
2022-08-05T04:48:58.907Z,52.09
2022-08-05T04:51:30.582Z,52.07
2022-08-05T04:54:02.308Z,52.02
2022-08-05T04:56:37.274Z,52.09
2022-08-05T04:59:24.165Z,51.82
2022-08-05T05:02:07.541Z,51.67
2022-08-05T05:04:49.892Z,51.58
2022-08-05T05:07:23.984Z,51.48
2022-08-05T05:10:03.889Z,51.68
2022-08-05T05:12:34.455Z,51.63
2022-08-05T05:15:11.075Z,51.73
2022-08-05T05:17:56.840Z,51.55
2022-08-05T05:20:28.653Z,51.60
2022-08-05T05:23:08.482Z,51.58
2022-08-05T05:25:49.618Z,51.51
2022-08-05T05:28:20.972Z,51.10
2022-08-05T05:30:50.280Z,50.86
2022-08-05T05:33:23.383Z,50.54
2022-08-05T05:35:52.764Z,50.33
2022-08-05T05:38:27.486Z,50.13
2022-08-05T05:40:57.927Z,50.14
2022-08-05T05:43:56.382Z,49.83
2022-08-05T05:46:17.987Z,49.86
2022-08-05T05:48:49.523Z,49.61
2022-08-05T05:51:23.450Z,49.59
2022-08-05T05:53:59.520Z,49.43
2022-08-05T05:56:32.732Z,49.11
2022-08-05T05:59:05.276Z,49.14
2022-08-05T06:01:38.687Z,48.87
2022-08-05T06:04:14.563Z,48.73
2022-08-05T06:06:47.291Z,48.59
2022-08-05T06:09:27.466Z,48.35
2022-08-05T06:12:12.250Z,48.09
2022-08-05T06:14:43.936Z,47.97
2022-08-05T06:17:24.543Z,47.70
2022-08-05T06:20:06.402Z,47.62
2022-08-05T06:22:50.803Z,47.22
2022-08-05T06:26:12.356Z,47.25
2022-08-05T06:28:23.015Z,47.08
2022-08-05T06:31:48.561Z,46.91
2022-08-05T06:34:22.626Z,46.94
2022-08-05T06:36:58.752Z,46.79
2022-08-05T06:39:30.792Z,46.96
2022-08-05T06:42:04.108Z,46.88
2022-08-05T06:44:39.093Z,46.83
2022-08-05T06:48:11.332Z,46.75
2022-08-05T06:50:05.313Z,46.52
2022-08-05T06:52:36.629Z,46.51
2022-08-05T06:55:16.055Z,46.41
2022-08-05T06:58:03.159Z,46.24
2022-08-05T07:00:34.846Z,45.98
2022-08-05T07:03:04.491Z,45.78
2022-08-05T07:05:41.167Z,45.82
2022-08-05T07:08:11.207Z,45.73
2022-08-05T07:10:53.012Z,45.11
2022-08-05T07:13:58.256Z,45.08
2022-08-05T07:18:01.082Z,44.76
2022-08-05T07:22:28.406Z,44.59
2022-08-05T07:25:22.111Z,44.47
2022-08-05T07:28:12.051Z,44.48
2022-08-05T07:31:07.578Z,44.32
2022-08-05T07:33:55.948Z,44.13
2022-08-05T07:36:33.007Z,43.95
2022-08-05T07:39:03.419Z,43.53
2022-08-05T07:42:12.992Z,43.40
2022-08-05T07:44:27.691Z,43.08
2022-08-05T07:47:14.807Z,42.92
2022-08-05T07:50:26.459Z,42.91
2022-08-05T07:53:05.136Z,42.60
2022-08-05T07:56:06.091Z,42.44
2022-08-05T07:58:54.759Z,42.46
2022-08-05T08:01:29.879Z,41.97
2022-08-05T08:03:59.646Z,41.76
2022-08-05T08:06:32.109Z,41.31
2022-08-05T08:09:01.407Z,41.20
2022-08-05T08:11:53.487Z,41.31
2022-08-05T08:14:27.793Z,41.40
2022-08-05T08:16:59.464Z,41.37
2022-08-05T08:20:43.642Z,41.22
2022-08-05T08:22:29.540Z,40.96
2022-08-05T08:26:08.766Z,39.76
2022-08-05T08:28:36.774Z,40.22
2022-08-05T08:31:17.632Z,40.47
2022-08-05T08:33:51.757Z,40.19
2022-08-05T08:36:38.708Z,40.29
2022-08-05T08:39:17.352Z,39.77
2022-08-05T08:41:59.700Z,39.41
2022-08-05T08:45:22.151Z,38.96
2022-08-05T08:48:06.980Z,38.82
2022-08-05T08:50:33.033Z,39.13
2022-08-05T08:53:12.127Z,38.87
2022-08-05T08:56:03.542Z,39.00
2022-08-05T08:58:37.491Z,38.62
2022-08-05T09:01:16.561Z,38.50
2022-08-05T09:03:55.671Z,37.69
2022-08-05T09:06:29.629Z,37.35
2022-08-05T09:09:01.904Z,37.07
2022-08-05T09:11:51.759Z,37.08
2022-08-05T09:14:58.582Z,37.46
2022-08-05T09:17:43.057Z,37.54
2022-08-05T09:21:20.831Z,37.26
2022-08-05T09:23:46.655Z,37.03
2022-08-05T09:26:22.175Z,36.63
2022-08-05T09:29:17.595Z,36.84
2022-08-05T09:32:40.771Z,36.55
2022-08-05T09:35:09.828Z,36.58
2022-08-05T09:38:12.375Z,35.72
2022-08-05T09:40:52.316Z,36.10
2022-08-05T09:43:41.322Z,36.09
2022-08-05T09:46:27.708Z,35.64
2022-08-05T09:49:06.727Z,35.28
2022-08-05T09:51:41.825Z,34.30
2022-08-05T09:54:14.844Z,34.44
2022-08-05T09:56:52.297Z,34.45
2022-08-05T09:59:27.725Z,35.13
2022-08-05T10:02:03.032Z,35.27
2022-08-05T10:04:39.453Z,34.82
2022-08-05T10:07:20.294Z,34.98
2022-08-05T10:10:14.250Z,34.95
2022-08-05T10:12:51.961Z,34.53
2022-08-05T10:15:26.085Z,34.66
2022-08-05T10:18:14.318Z,34.31
2022-08-05T10:20:52.571Z,33.89
2022-08-05T10:23:55.801Z,34.12
2022-08-05T10:26:14.473Z,33.60
2022-08-05T10:29:02.192Z,33.76
2022-08-05T10:32:54.813Z,33.81
2022-08-05T10:34:25.583Z,33.85
2022-08-05T10:37:00.484Z,33.58
2022-08-05T10:39:59.048Z,33.42
2022-08-05T10:42:34.305Z,33.32
2022-08-05T10:45:21.016Z,33.16
2022-08-05T10:48:31.726Z,33.11
2022-08-05T10:51:21.824Z,32.80
2022-08-05T10:54:01.631Z,32.85
2022-08-05T10:56:44.845Z,32.62
2022-08-05T11:00:02.103Z,32.62
2022-08-05T11:02:34.402Z,32.27
2022-08-05T11:05:00.231Z,32.07
2022-08-05T11:08:01.252Z,32.27
2022-08-05T11:10:27.753Z,32.18
2022-08-05T11:12:59.301Z,32.08
2022-08-05T11:15:59.362Z,32.07
2022-08-05T11:18:33.978Z,32.11
2022-08-05T11:21:11.256Z,31.85
2022-08-05T11:24:04.886Z,31.92
2022-08-05T11:26:35.168Z,31.73
2022-08-05T11:29:31.839Z,31.58
2022-08-05T11:32:25.551Z,31.56
2022-08-05T11:34:58.160Z,31.43
2022-08-05T11:38:29.336Z,31.42
2022-08-05T11:41:12.876Z,31.38
2022-08-05T11:44:06.951Z,30.84
2022-08-05T11:46:58.233Z,31.05
2022-08-05T11:49:28.427Z,30.90
2022-08-05T11:51:59.588Z,30.94
2022-08-05T11:54:34.491Z,30.19
2022-08-05T11:57:08.470Z,30.36
2022-08-05T11:59:57.824Z,30.80
2022-08-05T12:02:33.026Z,30.65
2022-08-05T12:05:08.270Z,30.11
2022-08-05T12:08:09.492Z,30.18
2022-08-05T12:10:45.532Z,30.50
2022-08-05T12:13:28.042Z,30.29
2022-08-05T12:16:14.484Z,30.40
2022-08-05T12:18:52.170Z,30.31
2022-08-05T12:21:26.959Z,30.12
2022-08-05T12:24:07.500Z,30.15
2022-08-05T12:26:48.159Z,29.90
2022-08-05T12:29:22.780Z,29.64
2022-08-05T12:31:56.556Z,29.69
2022-08-05T12:34:33.407Z,29.41
2022-08-05T12:37:29.813Z,29.29
2022-08-05T12:40:03.150Z,28.05
2022-08-05T12:42:33.206Z,28.75
2022-08-05T12:45:11.522Z,28.71
2022-08-05T12:47:43.552Z,27.77
2022-08-05T12:50:33.169Z,27.56
2022-08-05T12:53:04.754Z,27.93
2022-08-05T12:55:35.300Z,27.87
2022-08-05T12:58:38.657Z,27.84
2022-08-05T13:02:02.288Z,27.87
2022-08-05T13:04:07.454Z,27.57
2022-08-05T13:06:50.746Z,27.25
2022-08-05T13:09:27.852Z,26.97
2022-08-05T13:12:04.618Z,26.92
2022-08-05T13:14:40.393Z,26.55
2022-08-05T13:17:31.559Z,26.24
2022-08-05T13:20:11.871Z,26.15
2022-08-05T13:22:42.914Z,26.03
2022-08-05T13:25:19.105Z,25.81
2022-08-05T13:27:55.584Z,25.64
2022-08-05T13:30:34.629Z,25.66
2022-08-05T13:33:07.714Z,25.60
2022-08-05T13:35:43.297Z,25.47
2022-08-05T13:38:30.897Z,25.32
2022-08-05T13:41:06.679Z,25.08
2022-08-05T13:43:44.219Z,25.26
2022-08-05T13:46:35.715Z,25.02
2022-08-05T13:49:10.253Z,24.28
2022-08-05T13:51:46.175Z,24.50
2022-08-05T13:54:21.211Z,24.40
2022-08-05T13:56:57.633Z,24.24
2022-08-05T13:59:30.623Z,23.55
2022-08-05T14:02:02.322Z,23.82
2022-08-05T14:04:52.019Z,23.75
2022-08-05T14:07:26.099Z,23.78
2022-08-05T14:10:30.632Z,23.80
2022-08-05T14:13:01.067Z,23.44
2022-08-05T14:16:07.006Z,23.66
2022-08-05T14:18:45.077Z,23.66
2022-08-05T14:21:23.845Z,23.76
2022-08-05T14:24:13.983Z,23.28
2022-08-05T14:27:02.271Z,23.27
2022-08-05T14:29:43.504Z,23.50
2022-08-05T14:32:17.111Z,23.52
2022-08-05T14:34:57.693Z,23.50
2022-08-05T14:37:45.342Z,23.30
2022-08-05T14:40:18.016Z,23.12
2022-08-05T14:42:47.811Z,23.03
2022-08-05T14:45:18.349Z,22.91
2022-08-05T14:48:02.928Z,22.85
2022-08-05T14:50:39.797Z,22.79
2022-08-05T14:53:16.155Z,22.58
2022-08-05T14:55:52.557Z,22.09
2022-08-05T14:58:23.959Z,22.60
2022-08-05T15:00:58.388Z,22.38
2022-08-05T15:03:39.241Z,22.54
2022-08-05T15:06:27.921Z,22.56
2022-08-05T15:09:03.932Z,22.45
2022-08-05T15:11:53.178Z,22.30
2022-08-05T15:14:34.678Z,22.33
2022-08-05T15:17:44.338Z,21.88
2022-08-05T15:20:00.467Z,21.63
2022-08-05T15:22:29.814Z,21.58
2022-08-05T15:24:59.362Z,21.97
2022-08-05T15:27:36.035Z,21.84
2022-08-05T15:30:10.246Z,22.03
2022-08-05T15:32:50.679Z,21.97
2022-08-05T15:35:21.979Z,21.94
2022-08-05T15:38:32.904Z,22.18
2022-08-05T15:41:20.914Z,21.78
2022-08-05T15:43:45.420Z,22.08
2022-08-05T15:46:16.312Z,21.97
2022-08-05T15:48:54.788Z,21.66
2022-08-05T15:52:10.394Z,21.63
2022-08-05T15:54:35.118Z,21.46
2022-08-05T15:57:07.935Z,21.29
2022-08-05T15:59:38.933Z,21.41
2022-08-05T16:02:14.775Z,21.25
2022-08-05T16:04:49.150Z,21.50
2022-08-05T16:07:18.393Z,21.24
2022-08-05T16:09:52.029Z,21.16
2022-08-05T16:12:23.550Z,20.93
2022-08-05T16:14:53.254Z,21.20
2022-08-05T16:17:22.676Z,21.14
2022-08-05T16:20:04.312Z,21.24
2022-08-05T16:22:40.072Z,21.38
2022-08-05T16:25:11.341Z,21.40
2022-08-05T16:28:00.252Z,21.54
2022-08-05T16:30:30.425Z,21.61
2022-08-05T16:33:01.759Z,21.54
2022-08-05T16:35:32.347Z,21.58
2022-08-05T16:38:24.632Z,21.48
2022-08-05T16:40:59.654Z,21.63
2022-08-05T16:43:31.590Z,21.62
2022-08-05T16:46:06.234Z,21.45
2022-08-05T16:48:43.740Z,21.52
2022-08-05T16:51:13.560Z,21.87
2022-08-05T16:54:04.897Z,21.83
2022-08-05T16:56:35.371Z,21.90
2022-08-05T16:59:09.647Z,21.84
2022-08-05T17:01:53.256Z,22.10
2022-08-05T17:04:26.726Z,22.44
2022-08-05T17:07:00.430Z,22.27
2022-08-05T17:09:57.251Z,22.52
2022-08-05T17:12:22.389Z,22.38
2022-08-05T17:14:52.360Z,22.58
2022-08-05T17:17:22.522Z,22.62
2022-08-05T17:19:55.444Z,22.94
2022-08-05T17:22:26.039Z,22.88
2022-08-05T17:25:00.135Z,23.04
2022-08-05T17:27:34.649Z,23.30
2022-08-05T17:30:12.171Z,23.50
2022-08-05T17:32:50.852Z,23.60
2022-08-05T17:35:21.000Z,23.78
2022-08-05T17:37:50.843Z,23.85
2022-08-05T17:40:22.497Z,24.00
2022-08-05T17:42:53.060Z,24.24
2022-08-05T17:45:25.005Z,24.51
2022-08-05T17:47:59.454Z,24.59
2022-08-05T17:50:30.829Z,24.71
2022-08-05T17:53:05.141Z,25.11
2022-08-05T17:55:39.694Z,25.15
2022-08-05T17:58:13.734Z,25.44
2022-08-05T18:00:51.023Z,25.45
2022-08-05T18:03:59.683Z,25.77
2022-08-05T18:06:14.980Z,25.85
2022-08-05T18:08:52.439Z,25.93
2022-08-05T18:11:33.567Z,26.33
2022-08-05T18:14:07.166Z,26.46
2022-08-05T18:16:51.091Z,26.65
2022-08-05T18:19:26.038Z,26.94
2022-08-05T18:22:08.266Z,27.09
2022-08-05T18:24:42.459Z,27.47
2022-08-05T18:27:18.426Z,27.39
2022-08-05T18:29:54.100Z,27.54
2022-08-05T18:32:27.873Z,27.99
2022-08-05T18:34:59.429Z,28.00
2022-08-05T18:37:33.346Z,28.20
2022-08-05T18:40:31.222Z,28.20
2022-08-05T18:42:57.706Z,28.61
2022-08-05T18:45:41.511Z,28.70
2022-08-05T18:48:12.116Z,28.82
2022-08-05T18:52:03.365Z,29.17
2022-08-05T18:54:08.860Z,29.44
2022-08-05T18:56:38.515Z,29.40
2022-08-05T18:59:43.032Z,29.48
2022-08-05T19:01:58.639Z,29.62
2022-08-05T19:04:29.716Z,29.82
2022-08-05T19:06:59.431Z,29.93
2022-08-05T19:09:29.118Z,30.13
2022-08-05T19:12:11.448Z,30.25
2022-08-05T19:15:00.831Z,30.49
2022-08-05T19:17:58.261Z,30.61
2022-08-05T19:20:21.333Z,30.62
2022-08-05T19:22:53.296Z,31.23
2022-08-05T19:25:30.677Z,31.30
2022-08-05T19:28:09.765Z,31.40
2022-08-05T19:30:42.358Z,31.73
2022-08-05T19:33:16.989Z,31.81
2022-08-05T19:36:06.224Z,31.93
2022-08-05T19:38:36.618Z,32.01
2022-08-05T19:41:08.945Z,32.12
2022-08-05T19:44:05.445Z,32.63
2022-08-05T19:46:31.327Z,32.82
2022-08-05T19:49:03.967Z,32.97
2022-08-05T19:52:08.725Z,33.12
2022-08-05T19:54:31.437Z,33.38
2022-08-05T19:57:06.553Z,33.57
2022-08-05T20:00:00.436Z,33.59
2022-08-05T20:02:33.402Z,33.80
2022-08-05T20:05:09.701Z,33.77
2022-08-05T20:07:49.238Z,34.02
2022-08-05T20:10:22.350Z,34.03
2022-08-05T20:12:57.984Z,34.20
2022-08-05T20:15:52.158Z,34.57
2022-08-05T20:18:32.741Z,34.39
2022-08-05T20:21:06.906Z,34.55
2022-08-05T20:23:51.119Z,34.78
2022-08-05T20:26:23.341Z,34.86
2022-08-05T20:28:56.899Z,34.92
2022-08-05T20:31:42.123Z,35.11
2022-08-05T20:34:25.710Z,35.11
2022-08-05T20:36:55.619Z,35.28
2022-08-05T20:39:36.675Z,35.27
2022-08-05T20:42:12.616Z,35.61
2022-08-05T20:44:46.035Z,35.66
2022-08-05T20:47:19.244Z,35.41
2022-08-05T20:50:02.516Z,35.57
2022-08-05T20:52:35.556Z,35.73
2022-08-05T20:55:56.693Z,35.62
2022-08-05T20:57:58.252Z,35.71
2022-08-05T21:00:54.691Z,35.46
2022-08-05T21:03:20.764Z,35.80
2022-08-05T21:05:54.670Z,35.61
2022-08-05T21:08:26.939Z,35.76
2022-08-05T21:11:10.182Z,35.75
2022-08-05T21:13:56.736Z,35.91
2022-08-05T21:16:30.909Z,35.98
2022-08-05T21:19:01.927Z,36.08
2022-08-05T21:21:43.785Z,36.00
2022-08-05T21:24:33.304Z,35.96
2022-08-05T21:27:03.940Z,36.11
2022-08-05T21:29:40.628Z,36.08
2022-08-05T21:32:10.550Z,36.13
2022-08-05T21:35:08.262Z,36.29
2022-08-05T21:37:41.322Z,36.21
2022-08-05T21:40:14.065Z,36.31
2022-08-05T21:42:44.733Z,36.57
2022-08-05T21:45:38.165Z,36.59
2022-08-05T21:48:08.235Z,36.69
2022-08-05T21:50:38.152Z,36.56
2022-08-05T21:53:16.629Z,36.81
2022-08-05T21:56:04.865Z,37.00
2022-08-05T21:58:57.125Z,36.94
2022-08-05T22:01:26.912Z,37.10
2022-08-05T22:03:56.195Z,37.01
2022-08-05T22:06:35.059Z,37.30
2022-08-05T22:09:13.166Z,37.38
2022-08-05T22:11:47.358Z,37.50
2022-08-05T22:14:38.232Z,37.45
2022-08-05T22:17:12.641Z,37.66
2022-08-05T22:20:02.076Z,37.78
2022-08-05T22:22:54.812Z,37.72
2022-08-05T22:26:09.996Z,37.71
2022-08-05T22:28:33.161Z,37.86
2022-08-05T22:31:05.575Z,38.02
2022-08-05T22:33:56.669Z,37.87
2022-08-05T22:36:24.652Z,38.19
2022-08-05T22:38:54.364Z,38.10
2022-08-05T22:42:04.611Z,38.39
2022-08-05T22:44:16.426Z,38.19
2022-08-05T22:46:50.668Z,38.16
2022-08-05T22:50:18.205Z,38.24
2022-08-05T22:52:15.450Z,38.20
2022-08-05T22:54:53.830Z,38.26
2022-08-05T22:57:30.541Z,38.27
2022-08-05T23:00:18.255Z,38.42
2022-08-05T23:02:52.765Z,38.37
2022-08-05T23:05:26.857Z,38.58
2022-08-05T23:07:57.865Z,38.59
2022-08-05T23:10:30.281Z,38.65
2022-08-05T23:13:00.588Z,38.79
2022-08-05T23:15:34.921Z,38.74
2022-08-05T23:18:11.681Z,38.74
2022-08-05T23:20:45.542Z,38.86
2022-08-05T23:23:14.813Z,38.85
2022-08-05T23:25:51.503Z,38.93
2022-08-05T23:28:29.448Z,38.98
2022-08-05T23:31:16.683Z,38.85
2022-08-05T23:34:04.732Z,38.93
2022-08-05T23:36:38.449Z,38.94
2022-08-05T23:39:10.271Z,38.89
2022-08-05T23:41:48.381Z,38.88
2022-08-05T23:44:19.751Z,38.93
2022-08-05T23:46:51.767Z,38.91
2022-08-05T23:49:33.743Z,38.84
2022-08-05T23:52:22.324Z,39.09
2022-08-05T23:54:55.780Z,39.16
2022-08-05T23:57:28.126Z,39.12
